createdAt,value
2022-12-08T00:01:22.866Z,100.00
2022-12-08T00:03:50.884Z,100.00
2022-12-08T00:06:47.716Z,100.00
2022-12-08T00:09:22.879Z,100.00
2022-12-08T00:12:00.434Z,100.00
2022-12-08T00:14:40.596Z,100.00
2022-12-08T00:17:10.082Z,100.00
2022-12-08T00:19:39.270Z,100.00
2022-12-08T00:22:07.570Z,100.00
2022-12-08T00:24:39.472Z,100.00
2022-12-08T00:27:08.411Z,100.00
2022-12-08T00:29:35.412Z,100.00
2022-12-08T00:32:02.539Z,100.00
2022-12-08T00:34:31.004Z,100.00
2022-12-08T00:36:58.072Z,100.00
2022-12-08T00:39:25.036Z,100.00
2022-12-08T00:42:11.460Z,100.00
2022-12-08T00:44:39.687Z,100.00
2022-12-08T00:47:07.020Z,100.00
2022-12-08T00:49:33.990Z,100.00
2022-12-08T00:52:01.230Z,100.00
2022-12-08T00:54:28.544Z,100.00
2022-12-08T00:56:55.591Z,100.00
2022-12-08T00:59:22.586Z,100.00
2022-12-08T01:01:49.975Z,100.00
2022-12-08T01:04:18.878Z,100.00
2022-12-08T01:06:46.619Z,100.00
2022-12-08T01:09:15.195Z,100.00
2022-12-08T01:11:42.231Z,100.00
2022-12-08T01:14:09.210Z,100.00
2022-12-08T01:16:37.225Z,100.00
2022-12-08T01:19:04.730Z,100.00
2022-12-08T01:21:31.757Z,100.00
2022-12-08T01:24:02.887Z,100.00
2022-12-08T01:26:29.931Z,100.00
2022-12-08T01:28:56.950Z,100.00
2022-12-08T01:31:24.406Z,100.00
2022-12-08T01:33:51.563Z,100.00
2022-12-08T01:36:27.439Z,100.00
2022-12-08T01:38:58.044Z,100.00
2022-12-08T01:41:31.075Z,100.00
2022-12-08T01:44:04.045Z,100.00
2022-12-08T01:46:33.044Z,100.00
2022-12-08T01:49:15.668Z,100.00
2022-12-08T01:51:49.349Z,100.00
2022-12-08T01:54:17.176Z,100.00
2022-12-08T01:57:11.670Z,100.00
2022-12-08T01:59:44.632Z,100.00
2022-12-08T02:02:12.514Z,100.00
2022-12-08T02:04:39.936Z,100.00
2022-12-08T02:07:10.045Z,100.00
2022-12-08T02:09:38.386Z,100.00
2022-12-08T02:12:05.982Z,100.00
2022-12-08T02:14:34.571Z,100.00
2022-12-08T02:17:39.184Z,100.00
2022-12-08T02:20:30.104Z,100.00
2022-12-08T02:23:11.983Z,100.00
2022-12-08T02:25:51.889Z,100.00
2022-12-08T02:28:56.445Z,100.00
2022-12-08T02:31:35.679Z,100.00
2022-12-08T02:34:09.086Z,100.00
2022-12-08T02:36:39.114Z,100.00
2022-12-08T02:39:25.133Z,100.00
2022-12-08T02:42:06.073Z,100.00
2022-12-08T02:44:48.779Z,100.00
2022-12-08T02:47:19.289Z,100.00
2022-12-08T02:49:46.439Z,100.00
2022-12-08T02:52:13.365Z,100.00
2022-12-08T02:54:45.717Z,100.00
2022-12-08T02:57:33.731Z,100.00
2022-12-08T03:00:13.356Z,100.00
2022-12-08T03:03:05.250Z,100.00
2022-12-08T03:05:35.251Z,100.00
2022-12-08T03:08:31.333Z,100.00
2022-12-08T03:11:08.860Z,100.00
2022-12-08T03:13:46.378Z,100.00
2022-12-08T03:16:18.602Z,100.00
2022-12-08T03:18:50.838Z,100.00
2022-12-08T03:21:20.569Z,100.00
2022-12-08T03:23:51.883Z,100.00
2022-12-08T03:26:28.989Z,100.00
2022-12-08T03:28:56.732Z,100.00
2022-12-08T03:31:27.975Z,100.00
2022-12-08T03:33:58.507Z,100.00
2022-12-08T03:36:26.162Z,100.00
2022-12-08T03:38:54.383Z,100.00
2022-12-08T03:41:24.711Z,100.00
2022-12-08T03:43:59.480Z,100.00
2022-12-08T03:48:55.671Z,100.00
2022-12-08T03:51:23.338Z,100.00
2022-12-08T03:53:51.148Z,100.00
2022-12-08T03:56:26.298Z,100.00
2022-12-08T03:58:54.418Z,100.00
2022-12-08T04:01:22.771Z,100.00
2022-12-08T04:03:50.449Z,100.00
2022-12-08T04:06:18.312Z,100.00
2022-12-08T04:08:45.417Z,100.00
2022-12-08T04:11:12.730Z,100.00
2022-12-08T04:13:41.075Z,100.00
2022-12-08T04:16:09.045Z,100.00
2022-12-08T04:18:36.351Z,100.00
2022-12-08T04:21:03.486Z,100.00
2022-12-08T04:23:30.519Z,100.00
2022-12-08T04:25:57.813Z,100.00
2022-12-08T04:28:24.833Z,100.00
2022-12-08T04:30:51.952Z,100.00
2022-12-08T04:33:19.229Z,100.00
2022-12-08T04:35:46.291Z,100.00
2022-12-08T04:38:14.041Z,100.00
2022-12-08T04:40:41.301Z,100.00
2022-12-08T04:43:08.390Z,100.00
2022-12-08T04:45:35.652Z,100.00
2022-12-08T04:48:04.648Z,100.00
2022-12-08T04:50:31.796Z,100.00
2022-12-08T04:52:58.834Z,100.00
2022-12-08T04:55:26.111Z,100.00
2022-12-08T04:57:53.168Z,100.00
2022-12-08T05:00:20.229Z,100.00
2022-12-08T05:02:47.678Z,100.00
2022-12-08T05:05:14.854Z,100.00
2022-12-08T05:07:42.121Z,100.00
2022-12-08T05:10:09.827Z,100.00
2022-12-08T05:12:36.830Z,100.00
2022-12-08T05:15:04.203Z,100.00
2022-12-08T05:17:31.463Z,100.00
2022-12-08T05:19:58.447Z,100.00
2022-12-08T05:22:25.488Z,100.00
2022-12-08T05:24:52.747Z,100.00
2022-12-08T05:27:19.726Z,100.00
2022-12-08T05:29:48.133Z,100.00
2022-12-08T05:32:15.421Z,100.00
2022-12-08T05:34:42.627Z,100.00
2022-12-08T05:37:09.801Z,100.00
2022-12-08T05:39:37.256Z,100.00
2022-12-08T05:42:04.463Z,100.00
2022-12-08T05:44:31.491Z,100.00
2022-12-08T05:46:58.782Z,100.00
2022-12-08T05:49:26.103Z,100.00
2022-12-08T05:51:53.100Z,100.00
2022-12-08T05:54:20.454Z,100.00
2022-12-08T05:56:47.478Z,100.00
2022-12-08T05:59:14.489Z,100.00
2022-12-08T06:01:42.614Z,100.00
2022-12-08T06:04:10.231Z,100.00
2022-12-08T06:06:38.542Z,100.00
2022-12-08T06:09:06.506Z,100.00
2022-12-08T06:11:33.949Z,100.00
2022-12-08T06:14:01.394Z,100.00
2022-12-08T06:16:29.100Z,100.00
2022-12-08T06:18:57.154Z,100.00
2022-12-08T06:21:24.984Z,100.00
2022-12-08T06:23:54.150Z,100.00
2022-12-08T06:26:22.491Z,100.00
2022-12-08T06:28:50.066Z,100.00
2022-12-08T06:31:20.035Z,100.00
2022-12-08T06:33:47.407Z,100.00
2022-12-08T06:36:16.308Z,100.00
2022-12-08T06:38:44.142Z,100.00
2022-12-08T06:41:12.781Z,100.00
2022-12-08T06:43:41.180Z,100.00
2022-12-08T06:46:10.775Z,100.00
2022-12-08T06:48:38.323Z,100.00
2022-12-08T06:51:13.483Z,100.00
2022-12-08T06:53:41.293Z,100.00
2022-12-08T06:56:09.442Z,100.00
2022-12-08T06:58:36.938Z,100.00
2022-12-08T07:01:06.614Z,100.00
2022-12-08T07:03:33.931Z,100.00
2022-12-08T07:06:04.207Z,100.00
2022-12-08T07:08:33.837Z,100.00
2022-12-08T07:11:08.647Z,100.00
2022-12-08T07:13:36.120Z,100.00
2022-12-08T07:16:08.077Z,100.00
2022-12-08T07:18:36.024Z,100.00
2022-12-08T07:21:06.272Z,100.00
2022-12-08T07:23:33.732Z,100.00
2022-12-08T07:26:02.815Z,100.00
2022-12-08T07:28:34.637Z,100.00
2022-12-08T07:31:02.553Z,100.00
2022-12-08T07:33:29.775Z,100.00
2022-12-08T07:35:58.532Z,100.00
2022-12-08T07:38:26.550Z,100.00
2022-12-08T07:40:54.441Z,100.00
2022-12-08T07:43:22.658Z,100.00
2022-12-08T07:45:50.533Z,100.00
2022-12-08T07:48:17.657Z,100.00
2022-12-08T07:50:45.897Z,100.00
2022-12-08T07:53:15.049Z,99.68
2022-12-08T07:55:43.051Z,99.48
2022-12-08T07:58:11.319Z,99.19
2022-12-08T08:00:38.642Z,98.30
2022-12-08T08:03:06.355Z,98.35
2022-12-08T08:05:33.441Z,98.46
2022-12-08T08:08:00.530Z,96.74
2022-12-08T08:10:28.111Z,96.77
2022-12-08T08:12:58.125Z,97.37
2022-12-08T08:15:25.674Z,97.23
2022-12-08T08:17:53.336Z,96.16
2022-12-08T08:20:21.466Z,95.93
2022-12-08T08:22:50.631Z,95.65
2022-12-08T08:25:19.175Z,93.92
2022-12-08T08:27:46.938Z,94.01
2022-12-08T08:30:19.881Z,93.87
2022-12-08T08:32:48.712Z,93.61
2022-12-08T08:35:16.697Z,92.61
2022-12-08T08:37:48.591Z,93.07
2022-12-08T08:40:18.314Z,91.55
2022-12-08T08:42:45.400Z,92.12
2022-12-08T08:45:12.446Z,90.69
2022-12-08T08:47:39.711Z,91.50
2022-12-08T08:50:08.028Z,91.62
2022-12-08T08:52:35.212Z,90.66
2022-12-08T08:55:02.489Z,89.95
2022-12-08T08:57:29.474Z,89.53
2022-12-08T08:59:56.471Z,87.84
2022-12-08T09:02:23.985Z,86.84
2022-12-08T09:04:51.063Z,87.25
2022-12-08T09:07:18.151Z,86.87
2022-12-08T09:09:45.443Z,87.07
2022-12-08T09:12:13.447Z,86.78
2022-12-08T09:14:40.466Z,83.85
2022-12-08T09:17:08.619Z,83.93
2022-12-08T09:19:35.637Z,83.94
2022-12-08T09:22:04.008Z,82.11
2022-12-08T09:24:31.336Z,83.58
2022-12-08T09:26:58.340Z,82.19
2022-12-08T09:29:26.216Z,82.47
2022-12-08T09:31:56.504Z,83.06
2022-12-08T09:34:24.407Z,82.33
2022-12-08T09:36:51.409Z,82.93
2022-12-08T09:39:18.740Z,82.98
2022-12-08T09:41:50.269Z,81.84
2022-12-08T09:44:38.959Z,81.48
2022-12-08T09:47:18.543Z,80.57
2022-12-08T09:49:53.182Z,80.48
2022-12-08T09:52:41.447Z,80.32
2022-12-08T09:55:19.325Z,80.05
2022-12-08T09:57:57.792Z,80.62
2022-12-08T10:00:24.900Z,78.23
2022-12-08T10:02:52.574Z,78.43
2022-12-08T10:05:21.430Z,78.41
2022-12-08T10:07:59.495Z,78.60
2022-12-08T10:10:42.334Z,77.76
2022-12-08T10:13:38.610Z,79.32
2022-12-08T10:16:28.023Z,78.73
2022-12-08T10:19:19.696Z,79.29
2022-12-08T10:21:47.549Z,79.78
2022-12-08T10:24:34.629Z,81.00
2022-12-08T10:27:02.460Z,80.18
2022-12-08T10:29:29.772Z,79.67
2022-12-08T10:31:59.858Z,78.32
2022-12-08T10:34:27.363Z,77.22
2022-12-08T10:37:00.592Z,77.86
2022-12-08T10:39:43.936Z,77.76
2022-12-08T10:42:14.202Z,77.64
2022-12-08T10:45:02.299Z,78.76
2022-12-08T10:47:35.038Z,79.39
2022-12-08T10:50:10.144Z,78.55
2022-12-08T10:52:40.736Z,79.15
2022-12-08T10:55:19.587Z,78.76
2022-12-08T10:57:49.066Z,78.89
2022-12-08T11:00:20.117Z,79.19
2022-12-08T11:02:53.403Z,79.73
2022-12-08T11:05:22.637Z,79.19
2022-12-08T11:07:54.987Z,79.51
2022-12-08T11:10:32.366Z,78.88
2022-12-08T11:13:05.952Z,79.25
2022-12-08T11:15:39.960Z,78.98
2022-12-08T11:18:10.496Z,80.81
2022-12-08T11:20:41.441Z,79.58
2022-12-08T11:23:26.439Z,79.26
2022-12-08T11:25:58.840Z,79.86
2022-12-08T11:28:25.979Z,81.70
2022-12-08T11:31:00.687Z,79.44
2022-12-08T11:33:29.008Z,78.71
2022-12-08T11:36:02.370Z,79.49
2022-12-08T11:38:31.214Z,79.16
2022-12-08T11:41:15.786Z,79.92
2022-12-08T11:44:05.603Z,77.75
2022-12-08T11:46:57.019Z,77.60
2022-12-08T11:49:34.451Z,77.48
2022-12-08T11:52:13.282Z,76.93
2022-12-08T11:54:46.687Z,76.60
2022-12-08T11:57:20.818Z,77.04
2022-12-08T11:59:54.604Z,76.81
2022-12-08T12:02:26.660Z,76.55
2022-12-08T12:05:05.338Z,75.79
2022-12-08T12:07:44.295Z,76.28
2022-12-08T12:10:20.416Z,76.14
2022-12-08T12:13:09.270Z,77.99
2022-12-08T12:16:10.581Z,76.64
2022-12-08T12:19:09.909Z,76.62
2022-12-08T12:21:43.453Z,77.95
2022-12-08T12:24:35.964Z,77.63
2022-12-08T12:27:15.807Z,78.77
2022-12-08T12:29:56.594Z,77.58
2022-12-08T12:34:57.179Z,78.70
2022-12-08T12:37:42.616Z,79.66
2022-12-08T12:40:20.339Z,79.17
2022-12-08T12:43:10.448Z,79.75
2022-12-08T12:45:43.484Z,79.73
2022-12-08T12:48:22.507Z,78.89
2022-12-08T12:50:51.019Z,78.17
2022-12-08T12:53:18.924Z,80.08
2022-12-08T12:55:46.065Z,79.48
2022-12-08T12:58:27.523Z,78.49
2022-12-08T13:01:10.182Z,79.91
2022-12-08T13:03:41.774Z,80.32
2022-12-08T13:06:15.016Z,79.85
2022-12-08T13:08:51.470Z,79.70
2022-12-08T13:11:19.124Z,79.68
2022-12-08T13:13:57.457Z,80.23
2022-12-08T13:16:31.134Z,79.02
2022-12-08T13:19:03.742Z,79.44
2022-12-08T13:21:34.954Z,80.40
2022-12-08T13:24:13.530Z,79.71
2022-12-08T13:26:47.983Z,80.60
2022-12-08T13:29:24.672Z,79.75
2022-12-08T13:31:52.299Z,79.13
2022-12-08T13:34:45.268Z,80.80
2022-12-08T13:37:13.263Z,80.36
2022-12-08T13:39:40.177Z,81.82
2022-12-08T13:42:13.359Z,81.55
2022-12-08T13:45:39.763Z,79.88
2022-12-08T13:48:35.341Z,81.29
2022-12-08T13:57:26.559Z,82.48
2022-12-08T13:59:53.618Z,82.37
2022-12-08T14:02:30.734Z,83.04
2022-12-08T14:07:48.367Z,82.85
2022-12-08T14:10:23.393Z,82.55
2022-12-08T14:13:02.980Z,83.72
2022-12-08T14:15:37.631Z,83.94
2022-12-08T14:18:07.400Z,82.87
2022-12-08T14:20:57.682Z,83.34
2022-12-08T14:23:22.691Z,83.70
2022-12-08T14:25:50.099Z,84.99
2022-12-08T14:28:17.286Z,84.13
2022-12-08T14:30:44.670Z,83.28
2022-12-08T14:33:15.355Z,83.69
2022-12-08T14:35:42.507Z,84.41
2022-12-08T14:38:15.336Z,84.58
2022-12-08T14:40:44.908Z,84.86
2022-12-08T14:43:18.626Z,85.99
2022-12-08T14:45:45.851Z,86.21
2022-12-08T14:48:27.956Z,83.89
2022-12-08T14:51:07.033Z,83.62
2022-12-08T14:53:39.719Z,84.34
2022-12-08T14:56:16.331Z,84.68
2022-12-08T14:58:43.676Z,84.65
2022-12-08T15:01:16.938Z,85.56
2022-12-08T15:03:50.756Z,86.13
2022-12-08T15:06:21.376Z,86.26
2022-12-08T15:08:58.831Z,86.54
2022-12-08T15:11:33.434Z,87.60
2022-12-08T15:14:00.438Z,87.14
2022-12-08T15:16:36.909Z,85.78
2022-12-08T15:19:28.321Z,85.40
2022-12-08T15:21:58.248Z,85.19
2022-12-08T15:24:29.704Z,85.09
2022-12-08T15:26:57.159Z,85.26
2022-12-08T15:29:29.429Z,84.63
2022-12-08T15:32:00.024Z,85.25
2022-12-08T15:34:27.261Z,84.75
2022-12-08T15:36:55.087Z,84.07
2022-12-08T15:39:48.766Z,84.30
2022-12-08T15:42:15.853Z,84.55
2022-12-08T15:44:43.445Z,84.92
2022-12-08T15:47:21.631Z,85.07
2022-12-08T15:49:50.573Z,85.19
2022-12-08T15:52:20.342Z,85.03
2022-12-08T15:54:49.058Z,85.41
2022-12-08T15:57:53.492Z,85.20
2022-12-08T16:03:59.734Z,85.12
2022-12-08T16:09:12.183Z,86.08
2022-12-08T16:12:08.357Z,87.36
2022-12-08T16:17:25.182Z,87.15
2022-12-08T16:19:52.437Z,86.46
2022-12-08T16:25:19.194Z,87.59
2022-12-08T16:30:37.419Z,86.60
2022-12-08T16:33:05.021Z,87.35
2022-12-08T16:35:32.261Z,88.15
2022-12-08T16:37:59.623Z,87.73
2022-12-08T16:40:26.619Z,87.47
2022-12-08T16:42:53.614Z,87.96
2022-12-08T16:45:21.004Z,89.16
2022-12-08T16:47:56.252Z,90.48
2022-12-08T16:50:29.343Z,89.39
2022-12-08T16:53:00.203Z,89.43
2022-12-08T16:55:27.971Z,90.58
2022-12-08T16:57:55.402Z,90.61
2022-12-08T17:00:24.891Z,89.57
2022-12-08T17:02:52.816Z,90.82
2022-12-08T17:05:23.091Z,90.23
2022-12-08T17:07:51.597Z,91.40
2022-12-08T17:10:23.079Z,91.39
2022-12-08T17:12:50.488Z,90.45
2022-12-08T17:15:20.232Z,91.52
2022-12-08T17:17:47.678Z,91.25
2022-12-08T17:20:17.826Z,90.79
2022-12-08T17:22:45.230Z,90.51
2022-12-08T17:25:12.638Z,90.60
2022-12-08T17:27:40.617Z,88.31
2022-12-08T17:30:09.858Z,88.51
2022-12-08T17:32:39.988Z,89.18
2022-12-08T17:35:07.733Z,89.76
2022-12-08T17:37:35.488Z,88.62
2022-12-08T17:40:03.171Z,87.83
2022-12-08T17:42:30.394Z,87.55
2022-12-08T17:44:57.397Z,88.26
2022-12-08T17:47:24.757Z,88.54
2022-12-08T17:49:51.917Z,87.22
2022-12-08T17:52:18.916Z,87.87
2022-12-08T17:54:46.230Z,87.92
2022-12-08T17:57:13.273Z,87.27
2022-12-08T17:59:40.327Z,86.83
2022-12-08T18:02:10.807Z,87.41
2022-12-08T18:04:38.214Z,87.53
2022-12-08T18:07:05.316Z,87.79
2022-12-08T18:09:33.696Z,87.88
2022-12-08T18:12:01.072Z,87.63
2022-12-08T18:14:28.221Z,88.21
2022-12-08T18:16:55.430Z,88.42
2022-12-08T18:19:22.983Z,88.39
2022-12-08T18:21:50.049Z,88.43
2022-12-08T18:24:22.036Z,88.35
2022-12-08T18:26:52.158Z,88.77
2022-12-08T18:29:21.029Z,88.07
2022-12-08T18:31:48.453Z,87.14
2022-12-08T18:34:15.826Z,86.70
2022-12-08T18:36:42.815Z,87.48
2022-12-08T18:39:24.601Z,86.78
2022-12-08T18:41:52.775Z,87.36
2022-12-08T18:44:20.169Z,87.54
2022-12-08T18:46:47.328Z,87.36
2022-12-08T18:49:16.995Z,87.28
2022-12-08T18:51:44.512Z,87.92
2022-12-08T18:54:13.113Z,86.97
2022-12-08T18:56:40.766Z,87.18
2022-12-08T18:59:10.942Z,87.03
2022-12-08T19:01:39.869Z,86.99
2022-12-08T19:06:56.683Z,86.67
2022-12-08T19:09:26.600Z,86.43
2022-12-08T19:11:54.055Z,86.69
2022-12-08T19:14:27.930Z,86.62
2022-12-08T19:16:57.605Z,87.44
2022-12-08T19:19:25.837Z,88.53
2022-12-08T19:21:52.861Z,89.06
2022-12-08T19:24:20.503Z,88.76
2022-12-08T19:26:47.572Z,87.45
2022-12-08T19:29:14.703Z,87.48
2022-12-08T19:31:42.360Z,88.16
2022-12-08T19:34:11.880Z,88.83
2022-12-08T19:36:42.559Z,89.22
2022-12-08T19:39:40.404Z,89.10
2022-12-08T19:42:34.069Z,89.44
2022-12-08T19:45:06.977Z,88.75
2022-12-08T19:47:34.292Z,88.92
2022-12-08T19:50:20.125Z,88.49
2022-12-08T19:52:47.245Z,88.90
2022-12-08T19:55:14.701Z,90.57
2022-12-08T19:57:41.718Z,89.63
2022-12-08T20:00:10.850Z,88.58
2022-12-08T20:02:38.898Z,89.25
2022-12-08T20:05:06.864Z,89.76
2022-12-08T20:07:34.477Z,90.12
2022-12-08T20:10:07.131Z,90.54
2022-12-08T20:12:34.261Z,90.78
2022-12-08T20:15:01.625Z,90.18
2022-12-08T20:17:28.656Z,91.91
2022-12-08T20:19:55.722Z,91.40
2022-12-08T20:22:23.029Z,92.41
2022-12-08T20:24:58.253Z,91.98
2022-12-08T20:27:26.075Z,92.66
2022-12-08T20:29:53.097Z,92.90
2022-12-08T20:32:20.199Z,93.32
2022-12-08T20:34:47.534Z,93.64
2022-12-08T20:37:14.621Z,95.09
2022-12-08T20:39:41.654Z,94.03
2022-12-08T20:42:13.085Z,93.09
2022-12-08T20:44:44.242Z,92.76
2022-12-08T20:47:13.165Z,95.10
2022-12-08T20:49:40.336Z,94.90
2022-12-08T20:52:08.046Z,94.39
2022-12-08T20:54:37.075Z,94.33
2022-12-08T20:57:04.387Z,94.26
2022-12-08T20:59:31.571Z,94.43
2022-12-08T21:02:00.410Z,94.95
2022-12-08T21:04:28.062Z,95.06
2022-12-08T21:06:55.421Z,94.97
2022-12-08T21:09:22.909Z,94.95
2022-12-08T21:11:50.136Z,94.80
2022-12-08T21:14:17.337Z,95.41
2022-12-08T21:16:44.685Z,94.74
2022-12-08T21:19:12.209Z,95.18
2022-12-08T21:21:39.364Z,94.88
2022-12-08T21:24:07.220Z,95.72
2022-12-08T21:26:34.499Z,95.38
2022-12-08T21:29:01.700Z,95.88
2022-12-08T21:31:31.807Z,95.36
2022-12-08T21:34:00.961Z,97.63
2022-12-08T21:36:30.164Z,97.14
2022-12-08T21:39:02.459Z,97.20
2022-12-08T21:41:49.091Z,97.89
2022-12-08T21:44:18.730Z,97.19
2022-12-08T21:46:46.564Z,97.12
2022-12-08T21:49:13.889Z,96.70
2022-12-08T21:51:42.327Z,96.56
2022-12-08T21:54:16.739Z,96.48
2022-12-08T21:56:47.233Z,98.12
2022-12-08T21:59:15.396Z,98.65
2022-12-08T22:01:45.637Z,100.00
2022-12-08T22:04:17.330Z,100.00
2022-12-08T22:06:44.592Z,99.50
2022-12-08T22:09:13.524Z,99.58
2022-12-08T22:11:41.788Z,99.54
2022-12-08T22:14:14.169Z,99.71
2022-12-08T22:16:43.827Z,99.25
2022-12-08T22:19:11.376Z,99.14
2022-12-08T22:21:38.567Z,100.00
2022-12-08T22:24:06.479Z,100.00
2022-12-08T22:26:34.007Z,99.57
2022-12-08T22:29:01.313Z,100.00
2022-12-08T22:31:28.713Z,100.00
2022-12-08T22:33:55.842Z,100.00
2022-12-08T22:36:24.949Z,100.00
2022-12-08T22:38:53.936Z,100.00
2022-12-08T22:41:21.828Z,100.00
2022-12-08T22:43:50.207Z,99.82
2022-12-08T22:46:20.920Z,99.99
2022-12-08T22:48:49.088Z,100.00
2022-12-08T22:51:16.722Z,100.00
2022-12-08T22:53:44.775Z,100.00
2022-12-08T22:56:13.059Z,100.00
2022-12-08T22:58:41.847Z,100.00
2022-12-08T23:01:09.441Z,100.00
2022-12-08T23:03:36.779Z,100.00
2022-12-08T23:06:12.899Z,100.00
2022-12-08T23:08:40.724Z,100.00
2022-12-08T23:11:07.782Z,100.00
2022-12-08T23:13:34.844Z,100.00
2022-12-08T23:16:02.316Z,100.00
2022-12-08T23:18:29.362Z,100.00
2022-12-08T23:20:56.347Z,100.00
2022-12-08T23:23:23.621Z,100.00
2022-12-08T23:25:50.632Z,100.00
2022-12-08T23:28:17.627Z,100.00
2022-12-08T23:30:44.892Z,100.00
2022-12-08T23:33:12.131Z,100.00
2022-12-08T23:35:39.413Z,100.00
2022-12-08T23:38:06.771Z,100.00
2022-12-08T23:40:34.233Z,100.00
2022-12-08T23:43:01.284Z,100.00
2022-12-08T23:45:28.588Z,100.00
2022-12-08T23:47:55.720Z,100.00
2022-12-08T23:50:22.973Z,100.00
2022-12-08T23:52:50.449Z,100.00
2022-12-08T23:55:17.511Z,100.00
2022-12-08T23:57:44.597Z,100.00
